createdAt,value
2018-09-30T00:00:39.313Z,76.29
2018-09-30T00:03:09.018Z,76.54
2018-09-30T00:05:39.383Z,77.02
2018-09-30T00:08:09.056Z,76.74
2018-09-30T00:10:38.794Z,75.80
2018-09-30T00:13:08.857Z,77.57
2018-09-30T00:15:38.607Z,77.12
2018-09-30T00:18:08.483Z,78.40
2018-09-30T00:20:38.470Z,77.54
2018-09-30T00:23:08.350Z,76.72
2018-09-30T00:25:43.178Z,75.02
2018-09-30T00:28:12.799Z,72.54
2018-09-30T00:30:42.892Z,71.94
2018-09-30T00:33:12.527Z,73.27
2018-09-30T00:35:42.194Z,72.76
2018-09-30T00:38:11.818Z,73.01
2018-09-30T00:40:41.523Z,72.69
2018-09-30T00:43:11.264Z,73.91
2018-09-30T00:45:40.915Z,74.73
2018-09-30T00:48:11.072Z,76.55
2018-09-30T00:50:40.972Z,77.20
2018-09-30T00:53:10.945Z,76.54
2018-09-30T00:55:40.602Z,78.06
2018-09-30T00:58:10.239Z,77.39
2018-09-30T01:00:39.938Z,77.39
2018-09-30T01:03:09.654Z,76.15
2018-09-30T01:05:39.322Z,74.83
2018-09-30T01:08:08.987Z,75.17
2018-09-30T01:10:38.784Z,73.12
2018-09-30T01:13:08.552Z,73.35
2018-09-30T01:15:38.235Z,74.84
2018-09-30T01:18:07.969Z,74.95
2018-09-30T01:20:37.641Z,73.03
2018-09-30T01:23:07.298Z,71.68
2018-09-30T01:25:37.457Z,72.60
2018-09-30T01:28:07.243Z,73.95
2018-09-30T01:30:36.953Z,75.67
2018-09-30T01:33:06.650Z,77.29
2018-09-30T01:35:36.317Z,76.27
2018-09-30T01:38:06.111Z,77.63
2018-09-30T01:40:35.832Z,78.32
2018-09-30T01:43:05.527Z,78.87
2018-09-30T01:45:35.138Z,78.05
2018-09-30T01:48:04.802Z,76.40
2018-09-30T01:50:34.482Z,74.59
2018-09-30T01:53:04.145Z,73.26
2018-09-30T01:55:33.796Z,75.25
2018-09-30T01:58:03.493Z,75.78
2018-09-30T02:00:33.109Z,75.98
2018-09-30T02:03:02.758Z,77.68
2018-09-30T02:05:37.848Z,77.28
2018-09-30T02:08:07.645Z,76.37
2018-09-30T02:10:37.319Z,74.60
2018-09-30T02:13:07.249Z,74.79
2018-09-30T02:15:36.909Z,73.59
2018-09-30T02:18:06.672Z,73.39
2018-09-30T02:20:36.297Z,75.05
2018-09-30T02:23:05.962Z,74.35
2018-09-30T02:25:35.639Z,72.40
2018-09-30T02:28:05.274Z,71.60
2018-09-30T02:30:35.174Z,73.95
2018-09-30T02:33:05.212Z,76.69
2018-09-30T02:35:34.867Z,77.96
2018-09-30T02:38:04.723Z,78.98
2018-09-30T02:40:35.018Z,78.14
2018-09-30T02:43:04.966Z,76.99
2018-09-30T02:45:34.763Z,76.10
2018-09-30T02:48:04.993Z,77.42
2018-09-30T02:50:34.938Z,78.85
2018-09-30T02:53:07.772Z,79.58
2018-09-30T02:55:38.928Z,78.33
2018-09-30T02:58:10.064Z,77.70
2018-09-30T03:00:39.712Z,76.86
2018-09-30T03:03:09.359Z,74.86
2018-09-30T03:05:39.493Z,73.97
2018-09-30T03:08:14.438Z,74.70
2018-09-30T03:10:44.171Z,76.19
2018-09-30T03:13:13.816Z,76.92
2018-09-30T03:15:43.475Z,74.75
2018-09-30T03:18:13.108Z,74.19
2018-09-30T03:20:42.735Z,74.93
2018-09-30T03:23:12.342Z,78.01
2018-09-30T03:25:41.952Z,75.80
2018-09-30T03:28:11.635Z,73.19
2018-09-30T03:30:41.802Z,74.57
2018-09-30T03:33:11.438Z,76.72
2018-09-30T03:35:41.093Z,79.55
2018-09-30T03:38:10.747Z,77.15
2018-09-30T03:40:40.706Z,75.38
2018-09-30T03:43:10.375Z,74.10
2018-09-30T03:45:40.038Z,78.07
2018-09-30T03:48:09.676Z,78.36
2018-09-30T03:50:39.355Z,77.79
2018-09-30T03:53:08.980Z,76.44
2018-09-30T03:55:38.618Z,74.92
2018-09-30T03:58:08.300Z,77.03
2018-09-30T04:00:38.573Z,79.32
2018-09-30T04:03:08.311Z,79.91
2018-09-30T04:05:37.975Z,79.86
2018-09-30T04:08:08.319Z,77.23
2018-09-30T04:10:38.360Z,76.54
2018-09-30T04:13:08.380Z,79.95
2018-09-30T04:15:38.051Z,78.69
2018-09-30T04:18:07.743Z,77.36
2018-09-30T04:20:37.536Z,76.92
2018-09-30T04:23:07.515Z,76.42
2018-09-30T04:25:37.194Z,75.53
2018-09-30T04:28:06.879Z,74.54
2018-09-30T04:30:36.537Z,74.63
2018-09-30T04:33:06.292Z,76.02
2018-09-30T04:35:35.979Z,76.87
2018-09-30T04:38:05.758Z,76.36
2018-09-30T04:40:35.388Z,77.81
2018-09-30T04:43:05.092Z,79.42
2018-09-30T04:45:34.724Z,78.27
2018-09-30T04:48:04.351Z,78.56
2018-09-30T04:50:34.003Z,79.59
2018-09-30T04:53:03.621Z,79.54
2018-09-30T04:55:33.518Z,79.80
2018-09-30T04:58:03.155Z,78.88
2018-09-30T05:00:32.815Z,80.88
2018-09-30T05:03:02.638Z,81.71
2018-09-30T05:05:32.291Z,80.21
2018-09-30T05:08:02.281Z,76.99
2018-09-30T05:10:32.194Z,76.20
2018-09-30T05:13:01.838Z,76.00
2018-09-30T05:15:31.470Z,73.97
2018-09-30T05:18:01.094Z,74.35
2018-09-30T05:20:30.770Z,75.05
2018-09-30T05:23:00.451Z,76.32
2018-09-30T05:25:30.604Z,78.87
2018-09-30T05:28:00.484Z,79.47
2018-09-30T05:30:30.123Z,79.28
2018-09-30T05:32:59.787Z,76.77
2018-09-30T05:35:29.495Z,77.26
2018-09-30T05:37:59.183Z,79.09
2018-09-30T05:40:28.852Z,76.88
2018-09-30T05:42:58.538Z,75.86
2018-09-30T05:45:28.138Z,76.78
2018-09-30T05:47:57.904Z,79.14
2018-09-30T05:50:27.625Z,81.46
2018-09-30T05:52:57.255Z,79.84
2018-09-30T05:55:27.100Z,81.11
2018-09-30T05:57:56.781Z,80.39
2018-09-30T06:00:26.730Z,78.57
2018-09-30T06:02:56.725Z,77.72
2018-09-30T06:05:26.360Z,76.80
2018-09-30T06:07:56.238Z,76.41
2018-09-30T06:10:26.276Z,77.48
2018-09-30T06:12:55.937Z,76.20
2018-09-30T06:15:25.566Z,76.15
2018-09-30T06:17:55.281Z,76.86
2018-09-30T06:20:24.877Z,76.94
2018-09-30T06:22:54.524Z,76.14
2018-09-30T06:25:24.486Z,76.20
2018-09-30T06:27:54.187Z,75.38
2018-09-30T06:30:23.768Z,77.05
2018-09-30T06:32:53.471Z,77.50
2018-09-30T06:35:23.120Z,78.69
2018-09-30T06:37:52.790Z,79.39
2018-09-30T06:40:22.480Z,79.55
2018-09-30T06:42:52.066Z,80.55
2018-09-30T06:45:21.763Z,78.87
2018-09-30T06:47:51.434Z,77.26
2018-09-30T06:50:21.501Z,76.04
2018-09-30T06:52:51.143Z,75.48
2018-09-30T06:55:21.359Z,75.51
2018-09-30T06:57:51.023Z,74.86
2018-09-30T07:00:21.380Z,74.90
2018-09-30T07:02:51.403Z,74.35
2018-09-30T07:05:21.118Z,74.00
2018-09-30T07:07:50.783Z,77.43
2018-09-30T07:10:20.407Z,77.36
2018-09-30T07:12:51.274Z,79.61
2018-09-30T07:15:20.878Z,79.86
2018-09-30T07:17:51.046Z,78.60
2018-09-30T07:20:20.801Z,77.24
2018-09-30T07:22:50.470Z,76.84
2018-09-30T07:25:20.134Z,75.95
2018-09-30T07:27:49.783Z,76.56
2018-09-30T07:30:19.487Z,77.44
2018-09-30T07:32:49.742Z,77.03
2018-09-30T07:35:19.827Z,76.64
2018-09-30T07:37:50.205Z,76.73
2018-09-30T07:40:19.984Z,77.35
2018-09-30T07:42:49.721Z,76.97
2018-09-30T07:45:19.353Z,78.25
2018-09-30T07:47:49.643Z,77.26
2018-09-30T07:50:19.304Z,76.97
2018-09-30T07:52:48.944Z,78.90
2018-09-30T07:55:18.550Z,77.66
2018-09-30T07:57:48.558Z,79.67
2018-09-30T08:00:19.454Z,78.10
2018-09-30T08:02:49.110Z,77.50
2018-09-30T08:05:18.794Z,76.93
2018-09-30T08:07:49.300Z,76.69
2018-09-30T08:10:19.039Z,77.97
2018-09-30T08:12:48.707Z,77.12
2018-09-30T08:15:18.411Z,77.45
2018-09-30T08:17:48.060Z,77.08
2018-09-30T08:20:21.914Z,76.40
2018-09-30T08:22:51.936Z,78.37
2018-09-30T08:25:21.776Z,77.39
2018-09-30T08:27:51.603Z,76.61
2018-09-30T08:30:21.210Z,77.08
2018-09-30T08:32:50.891Z,76.87
2018-09-30T08:35:21.154Z,78.01
2018-09-30T08:37:56.083Z,76.39
2018-09-30T08:40:30.923Z,76.76
2018-09-30T08:43:01.360Z,75.72
2018-09-30T08:45:31.047Z,75.53
2018-09-30T08:48:00.715Z,73.99
2018-09-30T08:50:30.825Z,74.57
2018-09-30T08:53:00.457Z,71.42
2018-09-30T08:55:30.350Z,72.66
2018-09-30T08:58:00.066Z,72.34
2018-09-30T09:00:30.171Z,73.38
2018-09-30T09:03:00.161Z,70.03
2018-09-30T09:05:29.818Z,72.26
2018-09-30T09:07:59.609Z,71.43
2018-09-30T09:10:29.604Z,71.02
2018-09-30T09:12:59.823Z,71.13
2018-09-30T09:15:29.625Z,69.56
2018-09-30T09:17:59.451Z,67.35
2018-09-30T09:20:29.108Z,68.05
2018-09-30T09:22:59.144Z,67.50
2018-09-30T09:25:29.202Z,63.10
2018-09-30T09:27:59.148Z,63.92
2018-09-30T09:30:28.775Z,66.87
2018-09-30T09:32:58.940Z,61.68
2018-09-30T09:35:28.823Z,62.86
2018-09-30T09:37:58.500Z,65.80
2018-09-30T09:40:28.151Z,65.33
2018-09-30T09:42:57.770Z,62.85
2018-09-30T09:45:27.862Z,63.04
2018-09-30T09:47:57.519Z,63.49
2018-09-30T09:50:27.706Z,58.33
2018-09-30T09:52:57.374Z,61.58
2018-09-30T09:55:27.083Z,61.01
2018-09-30T09:57:56.743Z,59.78
2018-09-30T10:00:32.066Z,59.18
2018-09-30T10:03:01.703Z,56.78
2018-09-30T10:05:31.380Z,58.96
2018-09-30T10:08:01.094Z,59.30
2018-09-30T10:10:30.736Z,60.19
2018-09-30T10:13:00.753Z,56.83
2018-09-30T10:15:30.521Z,60.16
2018-09-30T10:18:00.163Z,60.60
2018-09-30T10:20:29.922Z,61.49
2018-09-30T10:22:59.707Z,58.93
2018-09-30T10:25:29.386Z,56.46
2018-09-30T10:27:59.063Z,60.38
2018-09-30T10:30:28.842Z,57.77
2018-09-30T10:32:58.593Z,59.75
2018-09-30T10:35:28.261Z,58.67
2018-09-30T10:37:58.111Z,57.19
2018-09-30T10:40:27.790Z,55.65
2018-09-30T10:42:58.061Z,55.39
2018-09-30T10:45:27.748Z,53.32
2018-09-30T10:47:57.383Z,55.36
2018-09-30T10:50:27.043Z,56.76
2018-09-30T10:52:56.724Z,54.03
2018-09-30T10:55:26.484Z,54.11
2018-09-30T10:57:56.071Z,55.88
2018-09-30T11:00:25.788Z,54.51
2018-09-30T11:02:55.402Z,56.41
2018-09-30T11:05:25.100Z,56.14
2018-09-30T11:07:54.798Z,53.26
2018-09-30T11:10:25.060Z,56.88
2018-09-30T11:12:54.786Z,54.74
2018-09-30T11:15:24.679Z,54.38
2018-09-30T11:17:54.402Z,53.77
2018-09-30T11:20:24.070Z,52.41
2018-09-30T11:22:53.741Z,52.45
2018-09-30T11:25:23.402Z,50.81
2018-09-30T11:27:53.128Z,53.23
2018-09-30T11:30:22.806Z,54.24
2018-09-30T11:32:53.442Z,53.55
2018-09-30T11:35:23.103Z,53.22
2018-09-30T11:37:52.838Z,53.33
2018-09-30T11:40:22.581Z,53.71
2018-09-30T11:42:52.276Z,53.81
2018-09-30T11:45:22.031Z,50.99
2018-09-30T11:47:51.804Z,51.25
2018-09-30T11:50:21.549Z,48.58
2018-09-30T11:52:51.936Z,49.88
2018-09-30T11:55:22.357Z,51.82
2018-09-30T11:57:52.218Z,51.34
2018-09-30T12:00:22.088Z,50.01
2018-09-30T12:02:52.588Z,49.24
2018-09-30T12:05:22.324Z,47.32
2018-09-30T12:07:52.305Z,47.80
2018-09-30T12:10:22.084Z,49.48
2018-09-30T12:12:53.238Z,51.24
2018-09-30T12:15:23.023Z,49.45
2018-09-30T12:17:52.814Z,51.26
2018-09-30T12:20:22.504Z,48.21
2018-09-30T12:22:56.123Z,46.00
2018-09-30T12:25:25.875Z,46.78
2018-09-30T12:27:55.654Z,48.91
2018-09-30T12:30:25.503Z,48.74
2018-09-30T12:32:55.295Z,46.08
2018-09-30T12:35:25.069Z,48.40
2018-09-30T12:37:54.772Z,46.10
2018-09-30T12:40:24.558Z,46.78
2018-09-30T12:42:54.277Z,45.21
2018-09-30T12:45:24.010Z,46.44
2018-09-30T12:47:53.901Z,45.70
2018-09-30T12:50:28.398Z,47.76
2018-09-30T12:52:59.164Z,48.19
2018-09-30T12:55:29.165Z,46.00
2018-09-30T12:58:00.056Z,46.28
2018-09-30T13:00:29.796Z,46.75
2018-09-30T13:03:00.242Z,42.71
2018-09-30T13:05:30.002Z,42.59
2018-09-30T13:07:59.854Z,43.92
2018-09-30T13:10:31.625Z,44.78
2018-09-30T13:13:01.524Z,45.05
2018-09-30T13:15:31.456Z,44.90
2018-09-30T13:18:01.223Z,44.04
2018-09-30T13:20:31.103Z,43.09
2018-09-30T13:23:00.851Z,44.78
2018-09-30T13:25:30.588Z,41.47
2018-09-30T13:28:03.858Z,43.99
2018-09-30T13:30:34.704Z,42.46
2018-09-30T13:33:16.719Z,44.33
2018-09-30T13:35:46.635Z,42.62
2018-09-30T13:38:21.848Z,43.36
2018-09-30T13:40:57.400Z,40.21
2018-09-30T13:43:29.234Z,41.29
2018-09-30T13:46:04.001Z,41.64
2018-09-30T13:48:34.737Z,43.50
2018-09-30T13:51:04.863Z,39.93
2018-09-30T13:53:36.558Z,43.24
2018-09-30T13:56:06.875Z,39.49
2018-09-30T13:58:38.006Z,39.72
2018-09-30T14:01:08.997Z,40.40
2018-09-30T14:03:39.203Z,42.98
2018-09-30T14:06:09.045Z,41.54
2018-09-30T14:08:38.815Z,42.53
2018-09-30T14:11:08.510Z,43.07
2018-09-30T14:13:38.878Z,43.44
2018-09-30T14:16:10.276Z,42.79
2018-09-30T14:18:40.378Z,42.48
2018-09-30T14:21:10.130Z,42.30
2018-09-30T14:23:39.856Z,43.90
2018-09-30T14:26:09.620Z,41.23
2018-09-30T14:28:39.560Z,38.18
2018-09-30T14:31:09.318Z,41.22
2018-09-30T14:33:38.933Z,41.65
2018-09-30T14:36:08.612Z,40.11
2018-09-30T14:38:38.540Z,40.36
2018-09-30T14:41:08.314Z,40.50
2018-09-30T14:43:38.680Z,41.82
2018-09-30T14:46:08.737Z,40.13
2018-09-30T14:48:39.645Z,39.25
2018-09-30T14:51:09.445Z,39.33
2018-09-30T14:53:39.186Z,38.29
2018-09-30T14:56:09.011Z,39.82
2018-09-30T14:58:38.746Z,39.36
2018-09-30T15:01:08.568Z,38.41
2018-09-30T15:03:38.217Z,39.18
2018-09-30T15:06:08.022Z,40.21
2018-09-30T15:08:37.745Z,38.83
2018-09-30T15:11:07.399Z,39.75
2018-09-30T15:13:37.171Z,40.48
2018-09-30T15:16:06.844Z,38.94
2018-09-30T15:18:36.558Z,40.87
2018-09-30T15:21:06.293Z,40.79
2018-09-30T15:23:35.963Z,41.26
2018-09-30T15:26:05.695Z,42.71
2018-09-30T15:28:35.447Z,41.65
2018-09-30T15:31:05.118Z,43.86
2018-09-30T15:33:34.763Z,43.40
2018-09-30T15:36:04.521Z,42.39
2018-09-30T15:38:34.318Z,42.97
2018-09-30T15:41:03.980Z,41.60
2018-09-30T15:43:33.739Z,44.96
2018-09-30T15:46:03.461Z,43.64
2018-09-30T15:48:33.093Z,43.44
2018-09-30T15:51:02.794Z,42.61
2018-09-30T15:53:32.619Z,42.44
2018-09-30T15:56:02.324Z,42.89
2018-09-30T15:58:32.144Z,44.57
2018-09-30T16:01:01.919Z,45.29
2018-09-30T16:03:31.711Z,42.74
2018-09-30T16:06:01.410Z,45.40
2018-09-30T16:08:31.207Z,45.58
2018-09-30T16:11:00.835Z,45.98
2018-09-30T16:13:30.560Z,43.83
2018-09-30T16:16:00.349Z,44.37
2018-09-30T16:18:30.028Z,44.66
2018-09-30T16:20:59.715Z,45.07
2018-09-30T16:23:29.400Z,45.56
2018-09-30T16:25:59.067Z,44.85
2018-09-30T16:28:28.800Z,45.58
2018-09-30T16:30:58.462Z,45.89
2018-09-30T16:33:28.181Z,47.14
2018-09-30T16:35:57.848Z,48.27
2018-09-30T16:38:27.523Z,48.10
2018-09-30T16:40:57.231Z,49.07
2018-09-30T16:43:27.362Z,49.31
2018-09-30T16:45:57.023Z,48.59
2018-09-30T16:48:26.632Z,49.57
2018-09-30T16:50:56.407Z,49.78
2018-09-30T16:53:26.097Z,51.79
2018-09-30T16:55:56.265Z,51.44
2018-09-30T16:58:25.929Z,51.28
2018-09-30T17:00:55.644Z,52.32
2018-09-30T17:03:25.449Z,52.28
2018-09-30T17:05:55.083Z,52.23
2018-09-30T17:08:24.751Z,51.29
2018-09-30T17:10:54.448Z,52.48
2018-09-30T17:13:24.115Z,52.61
2018-09-30T17:15:53.754Z,49.85
2018-09-30T17:18:23.435Z,49.55
2018-09-30T17:20:53.088Z,49.60
2018-09-30T17:23:22.812Z,50.39
2018-09-30T17:25:52.465Z,49.44
2018-09-30T17:28:22.630Z,50.44
2018-09-30T17:30:52.547Z,50.68
2018-09-30T17:33:23.004Z,51.51
2018-09-30T17:35:52.781Z,51.66
2018-09-30T17:38:22.486Z,52.71
2018-09-30T17:40:52.194Z,52.76
2018-09-30T17:43:21.830Z,53.88
2018-09-30T17:45:51.642Z,53.31
2018-09-30T17:48:21.328Z,53.92
2018-09-30T17:50:51.011Z,53.59
2018-09-30T17:53:20.682Z,53.73
2018-09-30T17:55:50.567Z,53.74
2018-09-30T17:58:20.223Z,54.12
2018-09-30T18:00:49.903Z,54.36
2018-09-30T18:03:19.635Z,54.94
2018-09-30T18:05:49.258Z,55.89
2018-09-30T18:08:18.991Z,55.33
2018-09-30T18:10:48.651Z,56.27
2018-09-30T18:13:18.375Z,57.69
2018-09-30T18:15:48.149Z,57.29
2018-09-30T18:18:17.852Z,58.39
2018-09-30T18:20:47.619Z,56.81
2018-09-30T18:23:18.251Z,58.49
2018-09-30T18:25:47.978Z,58.24
2018-09-30T18:28:17.865Z,58.21
2018-09-30T18:30:47.591Z,57.62
2018-09-30T18:33:17.406Z,58.40
2018-09-30T18:35:47.048Z,58.80
2018-09-30T18:38:16.810Z,59.75
2018-09-30T18:40:48.895Z,59.59
2018-09-30T18:43:19.515Z,60.73
2018-09-30T18:45:49.307Z,59.36
2018-09-30T18:48:18.987Z,59.06
2018-09-30T18:50:48.720Z,57.88
2018-09-30T18:53:18.563Z,57.54
2018-09-30T18:55:48.393Z,57.69
2018-09-30T18:58:18.185Z,59.11
2018-09-30T19:00:48.234Z,60.50
2018-09-30T19:03:18.131Z,61.77
2018-09-30T19:05:47.747Z,60.81
2018-09-30T19:08:17.769Z,60.49
2018-09-30T19:10:47.456Z,60.29
2018-09-30T19:13:17.258Z,59.15
2018-09-30T19:15:47.031Z,58.64
2018-09-30T19:18:16.794Z,59.17
2018-09-30T19:20:46.633Z,59.85
2018-09-30T19:23:16.744Z,59.60
2018-09-30T19:25:46.628Z,59.47
2018-09-30T19:28:16.411Z,60.72
2018-09-30T19:30:46.207Z,63.06
2018-09-30T19:33:15.927Z,62.27
2018-09-30T19:35:45.974Z,61.28
2018-09-30T19:38:15.695Z,60.21
2018-09-30T19:40:45.379Z,59.67
2018-09-30T19:43:15.141Z,58.95
2018-09-30T19:45:44.787Z,58.84
2018-09-30T19:48:14.589Z,59.24
2018-09-30T19:50:44.260Z,60.03
2018-09-30T19:53:13.958Z,60.36
2018-09-30T19:55:43.847Z,60.48
2018-09-30T19:58:13.594Z,59.73
2018-09-30T20:00:43.287Z,59.39
2018-09-30T20:03:13.035Z,59.84
2018-09-30T20:05:42.759Z,59.56
2018-09-30T20:08:12.454Z,60.26
2018-09-30T20:10:42.139Z,59.77
2018-09-30T20:13:12.050Z,60.67
2018-09-30T20:15:41.714Z,60.19
2018-09-30T20:18:11.374Z,62.40
2018-09-30T20:20:41.106Z,64.34
2018-09-30T20:23:10.736Z,64.03
2018-09-30T20:25:40.492Z,62.44
2018-09-30T20:28:13.716Z,60.95
2018-09-30T20:30:43.411Z,60.69
2018-09-30T20:33:13.078Z,60.24
2018-09-30T20:35:42.854Z,60.07
2018-09-30T20:38:12.552Z,60.04
2018-09-30T20:40:43.379Z,60.42
2018-09-30T20:43:13.195Z,63.05
2018-09-30T20:45:42.862Z,64.55
2018-09-30T20:48:12.698Z,63.55
2018-09-30T20:50:42.480Z,64.70
2018-09-30T20:53:12.169Z,63.83
2018-09-30T20:55:41.881Z,62.38
2018-09-30T20:58:11.675Z,63.65
2018-09-30T21:00:41.415Z,65.94
2018-09-30T21:03:11.127Z,63.99
2018-09-30T21:05:59.994Z,65.36
2018-09-30T21:08:29.687Z,66.94
2018-09-30T21:10:59.435Z,67.23
2018-09-30T21:13:29.150Z,68.93
2018-09-30T21:15:59.012Z,67.04
2018-09-30T21:18:28.843Z,65.46
2018-09-30T21:20:58.765Z,63.93
2018-09-30T21:23:29.510Z,64.39
2018-09-30T21:25:59.307Z,63.46
2018-09-30T21:28:29.106Z,64.67
2018-09-30T21:30:58.772Z,65.31
2018-09-30T21:33:28.572Z,66.58
2018-09-30T21:35:58.337Z,65.62
2018-09-30T21:38:28.059Z,65.01
2018-09-30T21:40:57.791Z,67.23
2018-09-30T21:43:27.603Z,68.61
2018-09-30T21:45:57.388Z,66.19
2018-09-30T21:48:27.155Z,65.27
2018-09-30T21:50:57.043Z,68.39
2018-09-30T21:53:26.749Z,69.17
2018-09-30T21:55:56.424Z,68.31
2018-09-30T21:58:44.373Z,68.78
2018-09-30T22:01:14.125Z,69.15
2018-09-30T22:03:43.911Z,67.94
2018-09-30T22:06:29.601Z,69.38
2018-09-30T22:08:59.388Z,68.29
2018-09-30T22:11:29.122Z,67.04
2018-09-30T22:13:58.814Z,66.23
2018-09-30T22:16:28.526Z,65.15
2018-09-30T22:18:58.403Z,66.51
2018-09-30T22:21:28.070Z,69.63
2018-09-30T22:24:01.308Z,68.91
2018-09-30T22:26:30.998Z,67.78
2018-09-30T22:29:00.760Z,68.37
2018-09-30T22:31:30.443Z,71.09
2018-09-30T22:34:00.116Z,69.65
2018-09-30T22:36:29.886Z,67.88
2018-09-30T22:38:59.615Z,67.51
2018-09-30T22:41:29.463Z,68.46
2018-09-30T22:43:59.151Z,69.71
2018-09-30T22:46:28.915Z,70.98
2018-09-30T22:48:58.635Z,70.57
2018-09-30T22:51:28.324Z,69.53
2018-09-30T22:53:57.983Z,68.29
2018-09-30T22:56:38.316Z,68.11
2018-09-30T22:59:11.521Z,66.30
2018-09-30T23:01:41.250Z,70.54
2018-09-30T23:04:10.969Z,69.19
2018-09-30T23:06:40.719Z,67.62
2018-09-30T23:09:10.427Z,68.69
2018-09-30T23:11:40.576Z,69.21
2018-09-30T23:14:10.252Z,68.16
2018-09-30T23:16:40.075Z,68.49
2018-09-30T23:19:09.951Z,69.30
2018-09-30T23:21:39.650Z,70.90
2018-09-30T23:24:09.385Z,71.38
2018-09-30T23:26:40.193Z,70.39
2018-09-30T23:29:28.840Z,71.96
2018-09-30T23:31:58.531Z,69.57
2018-09-30T23:34:28.205Z,71.49
2018-09-30T23:36:57.884Z,71.98
2018-09-30T23:39:27.703Z,72.34
2018-09-30T23:41:57.436Z,73.26
2018-09-30T23:44:27.084Z,72.15
2018-09-30T23:46:56.814Z,73.75
2018-09-30T23:49:26.624Z,72.36
2018-09-30T23:51:56.386Z,70.45
2018-09-30T23:54:26.087Z,70.82
2018-09-30T23:56:55.786Z,69.89
2018-09-30T23:59:25.443Z,69.24
